Ernesto Cortissoz International Airport
SKBQ : now visible

Airfield :











YOU CAN JOIN US ON...

 
LOGIN :

Register | Disclaimer

   EN    FR    IT 

 









Legend :    VFR   Marginal VFR   IFR   Intensive IFR   Very Intensive IFR
Visi :
Ceiling :
>= 8 km
>= 3000ft
5 to 8 km
1000 to 3000 ft
1500m to 5 km
500 to 1000 ft
800 to 1500m
200 to 500 ft
< 800m
< 200 ft
Symbols :   Thunderstorms  Fog  Heavy snow  Heavy precipitations  Wind > 20 kt






- Airport Elevation : 98 ft
- IATA code : BAQ


SKBQ - Ernesto Cortissoz International

CURRENT METAR :
  • 192200Z 34006KT 290V020 9999 VCSH SCT020TCU SCT200 29/25 A2975 NOSIG RMK TCU/VCSH/S

EXPIRED METARs :
  • 192100Z 20006KT 9999 FEW020 30/25 A2975 NOSIG
  • 192000Z 24004KT 180V310 9999 FEW020 SCT200 31/26 A2977 NOSIG

TAF TAF SKBQ
Valid from the 19 at 18:00 until the 20 at 18:00 UTC


191630Z 1918/2018 VRB04KT 4000 DZRA SCT015
TEMPO 1919/1923 4000 TSRA SCT012CB SCT070
TEMPO 1923/2001 9999 NSW SCT015 BKN070
TEMPO 2010/2013 4000 BR BKN012 TX32/1918Z TN25/2010Z
SKEC FIR / South America



MET'MAP, your aeronautical weather chart ! - Copyright ORBIFLY December 2007 - Disclaimer

ORBIFLY MET'MAP TEAM :

Programming & Development : Alexandra Zaïnal
Concept & original design : Baudouin d'Aumeries
Assistance for programming : Marc-Olivier Méhu
Technical & hardware support : Manuel Goepfert

Contact : metmap@orbifly.com




SOURCES & CREDITS :

   NOAA       Earth
Advisory